CSL Niagara — VCGJ — position and weather

sailwx.info

Track history (hours):
 
Tides and Currents Weather Stations Pressure Air Temp Water Temp Dewpoint Dewpoint Depression Visibility Wind Speed Wind Dir Waves Ship Positions

CSL Niagara

ex J. W. McGiffin

Last reported at 2014-Aug-01 04:33 UTC. Time now 2014-Aug-01 05:56 UTC.
Position N 45°26' W 073°30'.

Length 225 m; draft 10.4 m.

Type: Cargo ship. MMSI: 316029000.

Date/timePositionNaut miles runAvg speedWind from/ knotsBaromVisibWave heightAir tempDewpointWater temp
2014-Aug-01 04:33N 45°26' W 073°30'4 3.6
2014-Aug-01 03:33N 45°30' W 073°31'1 1.0
2014-Aug-01 02:33N 45°31' W 073°31'6 6.0
2014-Aug-01 01:33N 45°37' W 073°30'8 7.8
2014-Aug-01 00:33N 45°44' W 073°25'9 8.6
2014-Jul-31 23:33N 45°50' W 073°17'8 8.4
2014-Jul-31 22:33N 45°58' W 073°12'7 7.4
2014-Jul-31 21:33N 46°04' W 073°06'8 8.2
2014-Jul-31 20:33N 46°09' W 072°57'9 9.4
2014-Jul-31 19:33N 46°14' W 072°45'9 8.7
2014-Jul-31 18:33N 46°18' W 072°34'9 8.7
2014-Jul-31 17:33N 46°24' W 072°25'9 9.1
2014-Jul-31 16:33N 46°29' W 072°14'9 9.3
2014-Jul-31 15:33N 46°34' W 072°03'  
Track history (hours):
 
Tides and Currents Weather Stations Pressure Air Temp Water Temp Dewpoint Dewpoint Depression Visibility Wind Speed Wind Dir Waves Ship Positions

CSL Niagara

ex J. W. McGiffin

Last reported at 2014-Aug-01 04:33 UTC. Time now 2014-Aug-01 05:56 UTC.
Position N 45°26' W 073°30'.

Length 225 m; draft 10.4 m.

Type: Cargo ship. MMSI: 316029000.

Date/timePositionNaut miles runAvg speedWind from/ knotsBaromVisibWave heightAir tempDewpointWater temp
2014-Aug-01 04:33N 45°26' W 073°30'4 3.6
2014-Aug-01 03:33N 45°30' W 073°31'1 1.0
2014-Aug-01 02:33N 45°31' W 073°31'6 6.0
2014-Aug-01 01:33N 45°37' W 073°30'8 7.8
2014-Aug-01 00:33N 45°44' W 073°25'9 8.6
2014-Jul-31 23:33N 45°50' W 073°17'8 8.4
2014-Jul-31 22:33N 45°58' W 073°12'7 7.4
2014-Jul-31 21:33N 46°04' W 073°06'8 8.2
2014-Jul-31 20:33N 46°09' W 072°57'9 9.4
2014-Jul-31 19:33N 46°14' W 072°45'9 8.7
2014-Jul-31 18:33N 46°18' W 072°34'9 8.7
2014-Jul-31 17:33N 46°24' W 072°25'9 9.1
2014-Jul-31 16:33N 46°29' W 072°14'9 9.3
2014-Jul-31 15:33N 46°34' W 072°03'  

Dump ship's entire track history